Ana Sayfa
METAR-TAF:

METAR-TAF

Havaalanları :

Clark's Point, Alaska, Amerika Birleşik Devletleri

Enlem: 58-50-01N, Boylam: 158-31-46W, yükseklik: 24 m

Güncel hava durumu gözlemi

Rapor saat 11:28 UTC de 17 dakika önce yapıldı.
Rüzgar batı/güneybatıdan 17 kt ve 25 kt'a kadar ani rüzgarlar
Sıcaklık 0°C
Nem 93%
Basınç 1001 hPa
Görüş mesafesi: 16.1 km
900 ft yükseklikte parçalı bulutlu
1800 ft yükseklikte parçalı çok bulutlu
2600 ft yükseklikte çok bulutlu

METAR: PFCL 121128Z AUTO 25017G25KT 10SM SCT009 BKN018 OVC026 00/M01 A2957 RMK AO2 PK WND 24029/1059 UPB1059E15 P0000 FZRANO TSNO

Saat: 03:45 (11:45 UTC)


TAF: eksik

4.000'den fazla havaalanı için hava durumu gözlemleri ve tahminleri (METAR ve TAF raporları).

Kullanılabilir istasyonlar harita üzerinde sarı ve kırmızı noktalarla gösterilir.

İstasyonun adını görmek için fareyi noktanın üzerinde gezdirin.

Sonrasında hava gözlem ve tahminlerini görmek için tıklayın.

Haritayı değiştirmek için: yaklaştırmak için siyah artı işaretli yeşil düğmeye ve uzaklaştırmak için de eksi işaretli düğmeye hızla tıklayın; bitişik haritalar için yeşil okları kullanın.


METAR-TAF: